sensor_id;sensor_type;location;lat;lon;timestamp;temperature;humidity
15707;DHT22;7953;54.302;10.128;2022-11-13T00:01:10;6.20;99.90
15707;DHT22;7953;54.302;10.128;2022-11-13T00:03:37;6.20;99.90
15707;DHT22;7953;54.302;10.128;2022-11-13T00:06:04;6.20;99.90
15707;DHT22;7953;54.302;10.128;2022-11-13T00:08:33;6.10;99.90
15707;DHT22;7953;54.302;10.128;2022-11-13T00:11:01;6.10;99.90
15707;DHT22;7953;54.302;10.128;2022-11-13T00:13:28;6.10;99.90
15707;DHT22;7953;54.302;10.128;2022-11-13T00:15:56;6.10;99.90
15707;DHT22;7953;54.302;10.128;2022-11-13T00:18:23;6.10;99.90
15707;DHT22;7953;54.302;10.128;2022-11-13T00:20:50;6.10;99.90
15707;DHT22;7953;54.302;10.128;2022-11-13T00:23:17;6.10;99.90
15707;DHT22;7953;54.302;10.128;2022-11-13T00:25:45;6.10;99.90
15707;DHT22;7953;54.302;10.128;2022-11-13T00:28:12;6.10;99.90
15707;DHT22;7953;54.302;10.128;2022-11-13T00:30:39;6.10;99.90
15707;DHT22;7953;54.302;10.128;2022-11-13T00:33:06;6.00;99.90
15707;DHT22;7953;54.302;10.128;2022-11-13T00:35:33;6.00;99.90
15707;DHT22;7953;54.302;10.128;2022-11-13T00:38:00;6.00;99.90
15707;DHT22;7953;54.302;10.128;2022-11-13T00:40:26;6.00;99.90
15707;DHT22;7953;54.302;10.128;2022-11-13T00:42:55;6.00;99.90
15707;DHT22;7953;54.302;10.128;2022-11-13T00:45:21;6.00;99.90
15707;DHT22;7953;54.302;10.128;2022-11-13T00:47:48;6.00;99.90
15707;DHT22;7953;54.302;10.128;2022-11-13T00:50:15;5.90;99.90
15707;DHT22;7953;54.302;10.128;2022-11-13T00:52:42;5.90;99.90
15707;DHT22;7953;54.302;10.128;2022-11-13T00:55:09;5.90;99.90
15707;DHT22;7953;54.302;10.128;2022-11-13T00:57:36;5.90;99.90
15707;DHT22;7953;54.302;10.128;2022-11-13T01:00:06;5.90;99.90
15707;DHT22;7953;54.302;10.128;2022-11-13T01:02:33;5.90;99.90
15707;DHT22;7953;54.302;10.128;2022-11-13T01:05:00;5.90;99.90
15707;DHT22;7953;54.302;10.128;2022-11-13T01:07:27;5.90;99.90
15707;DHT22;7953;54.302;10.128;2022-11-13T01:09:54;5.90;99.90
15707;DHT22;7953;54.302;10.128;2022-11-13T01:12:21;6.00;99.90
15707;DHT22;7953;54.302;10.128;2022-11-13T01:14:48;6.10;99.90
15707;DHT22;7953;54.302;10.128;2022-11-13T01:17:16;6.20;99.90
15707;DHT22;7953;54.302;10.128;2022-11-13T01:19:43;6.20;99.90
15707;DHT22;7953;54.302;10.128;2022-11-13T01:22:09;6.20;99.90
15707;DHT22;7953;54.302;10.128;2022-11-13T01:24:36;6.20;99.90
15707;DHT22;7953;54.302;10.128;2022-11-13T01:27:04;6.20;99.90
15707;DHT22;7953;54.302;10.128;2022-11-13T01:29:31;6.30;99.90
15707;DHT22;7953;54.302;10.128;2022-11-13T01:31:58;6.30;99.90
15707;DHT22;7953;54.302;10.128;2022-11-13T01:34:26;6.30;99.90
15707;DHT22;7953;54.302;10.128;2022-11-13T01:36:53;6.30;99.90
15707;DHT22;7953;54.302;10.128;2022-11-13T01:39:20;6.20;99.90
15707;DHT22;7953;54.302;10.128;2022-11-13T01:41:47;6.30;99.90
15707;DHT22;7953;54.302;10.128;2022-11-13T01:44:16;6.30;99.90
15707;DHT22;7953;54.302;10.128;2022-11-13T01:46:44;6.30;99.90
15707;DHT22;7953;54.302;10.128;2022-11-13T01:49:31;6.20;99.90
15707;DHT22;7953;54.302;10.128;2022-11-13T01:52:00;6.20;99.90
15707;DHT22;7953;54.302;10.128;2022-11-13T01:54:30;6.30;99.90
15707;DHT22;7953;54.302;10.128;2022-11-13T01:56:58;6.20;99.90
15707;DHT22;7953;54.302;10.128;2022-11-13T01:59:29;6.20;99.90
15707;DHT22;7953;54.302;10.128;2022-11-13T02:01:56;6.20;99.90
15707;DHT22;7953;54.302;10.128;2022-11-13T02:04:24;6.20;99.90
15707;DHT22;7953;54.302;10.128;2022-11-13T02:06:55;6.20;99.90
15707;DHT22;7953;54.302;10.128;2022-11-13T02:09:26;6.20;99.90
15707;DHT22;7953;54.302;10.128;2022-11-13T02:11:55;6.20;99.90
15707;DHT22;7953;54.302;10.128;2022-11-13T02:14:24;6.10;99.90
15707;DHT22;7953;54.302;10.128;2022-11-13T02:16:55;6.10;99.90
15707;DHT22;7953;54.302;10.128;2022-11-13T02:19:26;6.10;99.90
15707;DHT22;7953;54.302;10.128;2022-11-13T02:22:02;6.10;99.90
15707;DHT22;7953;54.302;10.128;2022-11-13T02:24:36;6.10;99.90
15707;DHT22;7953;54.302;10.128;2022-11-13T02:27:06;6.10;99.90
15707;DHT22;7953;54.302;10.128;2022-11-13T02:29:34;6.10;99.90
15707;DHT22;7953;54.302;10.128;2022-11-13T02:32:01;6.10;99.90
15707;DHT22;7953;54.302;10.128;2022-11-13T02:34:28;6.10;99.90
15707;DHT22;7953;54.302;10.128;2022-11-13T02:36:55;6.10;99.90
15707;DHT22;7953;54.302;10.128;2022-11-13T02:39:22;6.10;99.90
15707;DHT22;7953;54.302;10.128;2022-11-13T02:41:50;6.00;99.90
15707;DHT22;7953;54.302;10.128;2022-11-13T02:44:17;6.00;99.90
15707;DHT22;7953;54.302;10.128;2022-11-13T02:46:44;6.00;99.90
15707;DHT22;7953;54.302;10.128;2022-11-13T02:49:11;6.00;99.90
15707;DHT22;7953;54.302;10.128;2022-11-13T02:51:38;6.00;99.90
15707;DHT22;7953;54.302;10.128;2022-11-13T02:54:05;6.00;99.90
15707;DHT22;7953;54.302;10.128;2022-11-13T02:56:32;6.00;99.90
15707;DHT22;7953;54.302;10.128;2022-11-13T02:59:00;6.00;99.90
15707;DHT22;7953;54.302;10.128;2022-11-13T03:01:27;6.00;99.90
15707;DHT22;7953;54.302;10.128;2022-11-13T03:03:54;6.00;99.90
15707;DHT22;7953;54.302;10.128;2022-11-13T03:06:21;6.00;99.90
15707;DHT22;7953;54.302;10.128;2022-11-13T03:08:48;6.00;99.90
15707;DHT22;7953;54.302;10.128;2022-11-13T03:11:14;6.00;99.90
15707;DHT22;7953;54.302;10.128;2022-11-13T03:13:41;6.00;99.90
15707;DHT22;7953;54.302;10.128;2022-11-13T03:16:11;6.00;99.90
15707;DHT22;7953;54.302;10.128;2022-11-13T03:18:39;6.10;99.90
15707;DHT22;7953;54.302;10.128;2022-11-13T03:21:07;6.20;99.90
15707;DHT22;7953;54.302;10.128;2022-11-13T03:23:34;6.20;99.90
15707;DHT22;7953;54.302;10.128;2022-11-13T03:26:03;6.20;99.90
15707;DHT22;7953;54.302;10.128;2022-11-13T03:28:30;6.10;99.90
15707;DHT22;7953;54.302;10.128;2022-11-13T03:30:57;6.20;99.90
15707;DHT22;7953;54.302;10.128;2022-11-13T03:33:25;6.10;99.90
15707;DHT22;7953;54.302;10.128;2022-11-13T03:35:52;6.10;99.90
15707;DHT22;7953;54.302;10.128;2022-11-13T03:38:19;6.00;99.90
15707;DHT22;7953;54.302;10.128;2022-11-13T03:40:46;6.00;99.90
15707;DHT22;7953;54.302;10.128;2022-11-13T03:43:13;6.00;99.90
15707;DHT22;7953;54.302;10.128;2022-11-13T03:45:42;6.00;99.90
15707;DHT22;7953;54.302;10.128;2022-11-13T03:48:10;6.00;99.90
15707;DHT22;7953;54.302;10.128;2022-11-13T03:50:38;6.00;99.90
15707;DHT22;7953;54.302;10.128;2022-11-13T03:53:05;5.90;99.90
15707;DHT22;7953;54.302;10.128;2022-11-13T03:55:32;5.90;99.90
15707;DHT22;7953;54.302;10.128;2022-11-13T03:57:59;5.90;99.90
15707;DHT22;7953;54.302;10.128;2022-11-13T04:00:26;5.80;99.90
15707;DHT22;7953;54.302;10.128;2022-11-13T04:02:53;5.80;99.90
15707;DHT22;7953;54.302;10.128;2022-11-13T04:05:20;5.80;99.90
15707;DHT22;7953;54.302;10.128;2022-11-13T04:07:48;5.80;99.90
15707;DHT22;7953;54.302;10.128;2022-11-13T04:10:16;5.70;99.90
15707;DHT22;7953;54.302;10.128;2022-11-13T04:12:43;5.70;99.90
15707;DHT22;7953;54.302;10.128;2022-11-13T04:15:10;5.80;99.90
15707;DHT22;7953;54.302;10.128;2022-11-13T04:17:37;5.80;99.90
15707;DHT22;7953;54.302;10.128;2022-11-13T04:20:04;5.80;99.90
15707;DHT22;7953;54.302;10.128;2022-11-13T04:22:32;5.80;99.90
15707;DHT22;7953;54.302;10.128;2022-11-13T04:25:00;5.80;99.90
15707;DHT22;7953;54.302;10.128;2022-11-13T04:27:27;5.80;99.90
15707;DHT22;7953;54.302;10.128;2022-11-13T04:29:54;5.70;99.90
15707;DHT22;7953;54.302;10.128;2022-11-13T04:32:21;5.70;99.90
15707;DHT22;7953;54.302;10.128;2022-11-13T04:34:48;5.70;99.90
15707;DHT22;7953;54.302;10.128;2022-11-13T04:37:14;5.70;99.90
15707;DHT22;7953;54.302;10.128;2022-11-13T04:39:41;5.70;99.90
15707;DHT22;7953;54.302;10.128;2022-11-13T04:42:10;5.70;99.90
15707;DHT22;7953;54.302;10.128;2022-11-13T04:44:55;5.70;99.90
15707;DHT22;7953;54.302;10.128;2022-11-13T04:47:22;5.70;99.90
15707;DHT22;7953;54.302;10.128;2022-11-13T04:49:49;5.80;99.90
15707;DHT22;7953;54.302;10.128;2022-11-13T04:52:16;5.80;99.90
15707;DHT22;7953;54.302;10.128;2022-11-13T04:54:43;5.80;99.90
15707;DHT22;7953;54.302;10.128;2022-11-13T04:57:11;5.80;99.90
15707;DHT22;7953;54.302;10.128;2022-11-13T04:59:38;5.70;99.90
15707;DHT22;7953;54.302;10.128;2022-11-13T05:02:05;5.70;99.90
15707;DHT22;7953;54.302;10.128;2022-11-13T05:04:32;5.70;99.90
15707;DHT22;7953;54.302;10.128;2022-11-13T05:06:58;5.70;99.90
15707;DHT22;7953;54.302;10.128;2022-11-13T05:09:25;5.80;99.90
15707;DHT22;7953;54.302;10.128;2022-11-13T05:11:52;5.80;99.90
15707;DHT22;7953;54.302;10.128;2022-11-13T05:14:20;5.70;99.90
15707;DHT22;7953;54.302;10.128;2022-11-13T05:16:47;5.80;99.90
15707;DHT22;7953;54.302;10.128;2022-11-13T05:19:15;5.80;99.90
15707;DHT22;7953;54.302;10.128;2022-11-13T05:21:42;5.90;99.90
15707;DHT22;7953;54.302;10.128;2022-11-13T05:24:09;5.90;99.90
15707;DHT22;7953;54.302;10.128;2022-11-13T05:26:37;5.90;99.90
15707;DHT22;7953;54.302;10.128;2022-11-13T05:29:04;5.90;99.90
15707;DHT22;7953;54.302;10.128;2022-11-13T05:31:32;6.00;99.90
15707;DHT22;7953;54.302;10.128;2022-11-13T05:34:01;6.00;99.90
15707;DHT22;7953;54.302;10.128;2022-11-13T05:36:28;6.00;99.90
15707;DHT22;7953;54.302;10.128;2022-11-13T05:38:55;6.10;99.90
15707;DHT22;7953;54.302;10.128;2022-11-13T05:41:22;6.10;99.90
15707;DHT22;7953;54.302;10.128;2022-11-13T05:43:50;6.20;99.90
15707;DHT22;7953;54.302;10.128;2022-11-13T05:46:18;6.10;99.90
15707;DHT22;7953;54.302;10.128;2022-11-13T05:48:56;6.10;99.90
15707;DHT22;7953;54.302;10.128;2022-11-13T05:51:24;6.10;99.90
15707;DHT22;7953;54.302;10.128;2022-11-13T05:53:52;6.10;99.90
15707;DHT22;7953;54.302;10.128;2022-11-13T05:56:21;6.10;99.90
15707;DHT22;7953;54.302;10.128;2022-11-13T05:58:49;6.20;99.90
15707;DHT22;7953;54.302;10.128;2022-11-13T06:01:19;6.30;99.90
15707;DHT22;7953;54.302;10.128;2022-11-13T06:03:47;6.30;99.90
15707;DHT22;7953;54.302;10.128;2022-11-13T06:06:16;6.50;99.90
15707;DHT22;7953;54.302;10.128;2022-11-13T06:08:44;6.60;99.90
15707;DHT22;7953;54.302;10.128;2022-11-13T06:11:13;6.70;99.90
15707;DHT22;7953;54.302;10.128;2022-11-13T06:13:40;6.70;99.90
15707;DHT22;7953;54.302;10.128;2022-11-13T06:16:09;6.80;99.90
15707;DHT22;7953;54.302;10.128;2022-11-13T06:18:37;6.70;99.90
15707;DHT22;7953;54.302;10.128;2022-11-13T06:21:09;6.70;99.90
15707;DHT22;7953;54.302;10.128;2022-11-13T06:23:37;6.70;99.90
15707;DHT22;7953;54.302;10.128;2022-11-13T06:26:08;6.60;99.90
15707;DHT22;7953;54.302;10.128;2022-11-13T06:28:35;6.70;99.90
15707;DHT22;7953;54.302;10.128;2022-11-13T06:31:03;6.80;99.90
15707;DHT22;7953;54.302;10.128;2022-11-13T06:33:30;6.80;99.90
15707;DHT22;7953;54.302;10.128;2022-11-13T06:35:57;6.90;99.90
15707;DHT22;7953;54.302;10.128;2022-11-13T06:38:29;6.90;99.90
15707;DHT22;7953;54.302;10.128;2022-11-13T06:40:57;6.90;99.90
15707;DHT22;7953;54.302;10.128;2022-11-13T06:43:24;7.00;99.90
15707;DHT22;7953;54.302;10.128;2022-11-13T06:45:51;7.00;99.90
15707;DHT22;7953;54.302;10.128;2022-11-13T06:48:17;7.00;99.90
15707;DHT22;7953;54.302;10.128;2022-11-13T06:50:44;7.10;99.90
15707;DHT22;7953;54.302;10.128;2022-11-13T06:53:11;7.00;99.90
15707;DHT22;7953;54.302;10.128;2022-11-13T06:55:43;7.00;99.90
15707;DHT22;7953;54.302;10.128;2022-11-13T06:58:10;7.10;99.90
15707;DHT22;7953;54.302;10.128;2022-11-13T07:00:37;7.00;99.90
15707;DHT22;7953;54.302;10.128;2022-11-13T07:03:04;7.00;99.90
15707;DHT22;7953;54.302;10.128;2022-11-13T07:05:31;6.90;99.90
15707;DHT22;7953;54.302;10.128;2022-11-13T07:07:57;7.00;99.90
15707;DHT22;7953;54.302;10.128;2022-11-13T07:10:24;7.00;99.90
15707;DHT22;7953;54.302;10.128;2022-11-13T07:12:52;7.00;99.90
15707;DHT22;7953;54.302;10.128;2022-11-13T07:15:19;7.00;99.90
15707;DHT22;7953;54.302;10.128;2022-11-13T07:17:46;7.10;99.90
15707;DHT22;7953;54.302;10.128;2022-11-13T07:20:13;7.10;99.90
15707;DHT22;7953;54.302;10.128;2022-11-13T07:22:40;7.10;99.90
15707;DHT22;7953;54.302;10.128;2022-11-13T07:25:07;7.10;99.90
15707;DHT22;7953;54.302;10.128;2022-11-13T07:27:34;7.10;99.90
15707;DHT22;7953;54.302;10.128;2022-11-13T07:30:03;7.00;99.90
15707;DHT22;7953;54.302;10.128;2022-11-13T07:32:30;7.00;99.90
15707;DHT22;7953;54.302;10.128;2022-11-13T07:34:58;7.10;99.90
15707;DHT22;7953;54.302;10.128;2022-11-13T07:37:26;7.10;99.90
15707;DHT22;7953;54.302;10.128;2022-11-13T07:39:53;7.10;99.90
15707;DHT22;7953;54.302;10.128;2022-11-13T07:42:19;7.10;99.90
15707;DHT22;7953;54.302;10.128;2022-11-13T07:44:46;7.10;99.90
15707;DHT22;7953;54.302;10.128;2022-11-13T07:47:14;7.10;99.90
15707;DHT22;7953;54.302;10.128;2022-11-13T07:49:41;7.20;99.90
15707;DHT22;7953;54.302;10.128;2022-11-13T07:52:08;7.20;99.90
15707;DHT22;7953;54.302;10.128;2022-11-13T07:54:35;7.20;99.90
15707;DHT22;7953;54.302;10.128;2022-11-13T07:57:02;7.20;99.90
15707;DHT22;7953;54.302;10.128;2022-11-13T07:59:29;7.20;99.90
15707;DHT22;7953;54.302;10.128;2022-11-13T08:01:55;7.20;99.90
15707;DHT22;7953;54.302;10.128;2022-11-13T08:04:24;7.10;99.90
15707;DHT22;7953;54.302;10.128;2022-11-13T08:06:51;7.20;99.90
15707;DHT22;7953;54.302;10.128;2022-11-13T08:09:17;7.20;99.90
15707;DHT22;7953;54.302;10.128;2022-11-13T08:11:44;7.30;99.90
15707;DHT22;7953;54.302;10.128;2022-11-13T08:14:11;7.20;99.90
15707;DHT22;7953;54.302;10.128;2022-11-13T08:16:38;7.20;99.90
15707;DHT22;7953;54.302;10.128;2022-11-13T08:19:05;7.10;99.90
15707;DHT22;7953;54.302;10.128;2022-11-13T08:21:34;7.10;99.90
15707;DHT22;7953;54.302;10.128;2022-11-13T08:24:00;7.10;99.90
15707;DHT22;7953;54.302;10.128;2022-11-13T08:26:27;7.20;99.90
15707;DHT22;7953;54.302;10.128;2022-11-13T08:28:54;7.20;99.90
15707;DHT22;7953;54.302;10.128;2022-11-13T08:31:21;7.50;99.90
15707;DHT22;7953;54.302;10.128;2022-11-13T08:33:48;7.70;99.90
15707;DHT22;7953;54.302;10.128;2022-11-13T08:36:15;8.20;99.90
15707;DHT22;7953;54.302;10.128;2022-11-13T08:38:43;8.90;99.90
15707;DHT22;7953;54.302;10.128;2022-11-13T08:41:10;9.60;99.90
15707;DHT22;7953;54.302;10.128;2022-11-13T08:43:36;10.10;99.90
15707;DHT22;7953;54.302;10.128;2022-11-13T08:46:03;11.10;99.90
15707;DHT22;7953;54.302;10.128;2022-11-13T08:48:30;12.10;99.90
15707;DHT22;7953;54.302;10.128;2022-11-13T08:50:57;12.30;99.90
15707;DHT22;7953;54.302;10.128;2022-11-13T08:53:25;12.30;99.90
15707;DHT22;7953;54.302;10.128;2022-11-13T08:55:53;12.70;99.90
15707;DHT22;7953;54.302;10.128;2022-11-13T08:58:20;12.60;99.90
15707;DHT22;7953;54.302;10.128;2022-11-13T09:00:46;12.20;99.90
15707;DHT22;7953;54.302;10.128;2022-11-13T09:03:14;11.60;99.90
15707;DHT22;7953;54.302;10.128;2022-11-13T09:05:40;11.00;99.90
15707;DHT22;7953;54.302;10.128;2022-11-13T09:08:07;10.30;99.90
15707;DHT22;7953;54.302;10.128;2022-11-13T09:10:35;9.60;99.90
15707;DHT22;7953;54.302;10.128;2022-11-13T09:13:04;9.30;99.90
15707;DHT22;7953;54.302;10.128;2022-11-13T09:15:33;9.10;99.90
15707;DHT22;7953;54.302;10.128;2022-11-13T09:18:01;9.00;99.90
15707;DHT22;7953;54.302;10.128;2022-11-13T09:20:29;8.80;99.90
15707;DHT22;7953;54.302;10.128;2022-11-13T09:22:57;8.60;99.90
15707;DHT22;7953;54.302;10.128;2022-11-13T09:25:25;8.60;99.90
15707;DHT22;7953;54.302;10.128;2022-11-13T09:27:53;8.50;99.90
15707;DHT22;7953;54.302;10.128;2022-11-13T09:30:22;8.40;99.90
15707;DHT22;7953;54.302;10.128;2022-11-13T09:32:52;8.40;99.90
15707;DHT22;7953;54.302;10.128;2022-11-13T09:35:19;8.30;99.90
15707;DHT22;7953;54.302;10.128;2022-11-13T09:37:58;8.20;99.90
15707;DHT22;7953;54.302;10.128;2022-11-13T09:40:30;8.20;99.90
15707;DHT22;7953;54.302;10.128;2022-11-13T09:42:58;8.20;99.90
15707;DHT22;7953;54.302;10.128;2022-11-13T09:45:28;8.30;99.90
15707;DHT22;7953;54.302;10.128;2022-11-13T09:47:58;8.20;99.90
15707;DHT22;7953;54.302;10.128;2022-11-13T09:50:28;8.30;99.90
15707;DHT22;7953;54.302;10.128;2022-11-13T09:52:56;8.30;99.90
15707;DHT22;7953;54.302;10.128;2022-11-13T09:55:37;8.30;99.90
15707;DHT22;7953;54.302;10.128;2022-11-13T09:58:10;8.30;99.90
15707;DHT22;7953;54.302;10.128;2022-11-13T10:00:40;8.20;99.90
15707;DHT22;7953;54.302;10.128;2022-11-13T10:03:21;8.20;99.90
15707;DHT22;7953;54.302;10.128;2022-11-13T10:05:57;8.20;99.90
15707;DHT22;7953;54.302;10.128;2022-11-13T10:08:28;8.20;99.90
15707;DHT22;7953;54.302;10.128;2022-11-13T10:11:01;8.20;99.90
15707;DHT22;7953;54.302;10.128;2022-11-13T10:13:33;8.20;99.90
15707;DHT22;7953;54.302;10.128;2022-11-13T10:16:13;8.30;99.90
15707;DHT22;7953;54.302;10.128;2022-11-13T10:18:43;8.30;99.90
15707;DHT22;7953;54.302;10.128;2022-11-13T10:21:19;8.30;99.90
15707;DHT22;7953;54.302;10.128;2022-11-13T10:23:56;8.40;99.90
15707;DHT22;7953;54.302;10.128;2022-11-13T10:26:25;8.40;99.90
15707;DHT22;7953;54.302;10.128;2022-11-13T10:28:59;8.30;99.90
15707;DHT22;7953;54.302;10.128;2022-11-13T10:31:27;8.40;99.90
15707;DHT22;7953;54.302;10.128;2022-11-13T10:33:56;8.40;99.90
15707;DHT22;7953;54.302;10.128;2022-11-13T10:36:31;8.40;99.90
15707;DHT22;7953;54.302;10.128;2022-11-13T10:39:03;8.40;99.90
15707;DHT22;7953;54.302;10.128;2022-11-13T10:41:31;8.40;99.90
15707;DHT22;7953;54.302;10.128;2022-11-13T10:44:01;8.50;99.90
15707;DHT22;7953;54.302;10.128;2022-11-13T10:46:30;8.40;99.90
15707;DHT22;7953;54.302;10.128;2022-11-13T10:48:58;8.40;99.90
15707;DHT22;7953;54.302;10.128;2022-11-13T10:51:35;8.40;99.90
15707;DHT22;7953;54.302;10.128;2022-11-13T10:54:19;8.40;99.90
15707;DHT22;7953;54.302;10.128;2022-11-13T10:56:56;8.40;99.90
15707;DHT22;7953;54.302;10.128;2022-11-13T10:59:23;8.30;99.90
15707;DHT22;7953;54.302;10.128;2022-11-13T11:01:52;8.30;99.90
15707;DHT22;7953;54.302;10.128;2022-11-13T11:04:21;8.30;99.90
15707;DHT22;7953;54.302;10.128;2022-11-13T11:06:52;8.20;99.90
15707;DHT22;7953;54.302;10.128;2022-11-13T11:09:22;8.20;99.90
15707;DHT22;7953;54.302;10.128;2022-11-13T11:11:57;8.20;99.90
15707;DHT22;7953;54.302;10.128;2022-11-13T11:15:13;8.30;99.90
15707;DHT22;7953;54.302;10.128;2022-11-13T11:17:47;8.30;99.90
15707;DHT22;7953;54.302;10.128;2022-11-13T11:20:20;8.20;99.90
15707;DHT22;7953;54.302;10.128;2022-11-13T11:22:51;8.20;99.90
15707;DHT22;7953;54.302;10.128;2022-11-13T11:25:28;8.20;99.90
15707;DHT22;7953;54.302;10.128;2022-11-13T11:28:01;8.20;99.90
15707;DHT22;7953;54.302;10.128;2022-11-13T11:30:34;8.20;99.90
15707;DHT22;7953;54.302;10.128;2022-11-13T11:33:11;8.30;99.90
15707;DHT22;7953;54.302;10.128;2022-11-13T11:35:44;8.30;99.90
15707;DHT22;7953;54.302;10.128;2022-11-13T11:38:17;8.40;99.90
15707;DHT22;7953;54.302;10.128;2022-11-13T11:40:49;8.40;99.90
15707;DHT22;7953;54.302;10.128;2022-11-13T11:43:26;8.40;99.90
15707;DHT22;7953;54.302;10.128;2022-11-13T11:45:54;8.50;99.90
15707;DHT22;7953;54.302;10.128;2022-11-13T11:48:25;8.50;99.90
15707;DHT22;7953;54.302;10.128;2022-11-13T11:50:59;8.40;99.90
15707;DHT22;7953;54.302;10.128;2022-11-13T11:53:35;8.40;99.90
15707;DHT22;7953;54.302;10.128;2022-11-13T11:56:18;8.40;99.90
15707;DHT22;7953;54.302;10.128;2022-11-13T12:01:51;8.40;99.90
15707;DHT22;7953;54.302;10.128;2022-11-13T12:04:42;8.40;99.90
15707;DHT22;7953;54.302;10.128;2022-11-13T12:07:22;8.40;99.90
15707;DHT22;7953;54.302;10.128;2022-11-13T12:09:58;8.40;99.90
15707;DHT22;7953;54.302;10.128;2022-11-13T12:12:40;8.40;99.90
15707;DHT22;7953;54.302;10.128;2022-11-13T12:15:14;8.40;99.90
15707;DHT22;7953;54.302;10.128;2022-11-13T12:17:52;8.50;99.90
15707;DHT22;7953;54.302;10.128;2022-11-13T12:20:32;8.40;99.90
15707;DHT22;7953;54.302;10.128;2022-11-13T12:23:09;8.50;99.90
15707;DHT22;7953;54.302;10.128;2022-11-13T12:25:44;8.50;99.90
15707;DHT22;7953;54.302;10.128;2022-11-13T12:28:18;8.50;99.90
15707;DHT22;7953;54.302;10.128;2022-11-13T12:30:56;8.50;99.90
15707;DHT22;7953;54.302;10.128;2022-11-13T12:33:33;8.50;99.90
15707;DHT22;7953;54.302;10.128;2022-11-13T12:36:06;8.60;99.90
15707;DHT22;7953;54.302;10.128;2022-11-13T12:38:40;8.50;99.90
15707;DHT22;7953;54.302;10.128;2022-11-13T12:41:15;8.50;99.90
15707;DHT22;7953;54.302;10.128;2022-11-13T12:44:04;8.50;99.90
15707;DHT22;7953;54.302;10.128;2022-11-13T12:46:38;8.60;99.90
15707;DHT22;7953;54.302;10.128;2022-11-13T12:49:21;8.60;99.90
15707;DHT22;7953;54.302;10.128;2022-11-13T12:51:55;8.60;99.90
15707;DHT22;7953;54.302;10.128;2022-11-13T12:54:27;8.70;99.90
15707;DHT22;7953;54.302;10.128;2022-11-13T12:57:05;8.60;99.90
15707;DHT22;7953;54.302;10.128;2022-11-13T12:59:34;8.70;99.90
15707;DHT22;7953;54.302;10.128;2022-11-13T13:02:29;8.70;99.90
15707;DHT22;7953;54.302;10.128;2022-11-13T13:05:05;8.70;99.90
15707;DHT22;7953;54.302;10.128;2022-11-13T13:07:50;8.70;99.90
15707;DHT22;7953;54.302;10.128;2022-11-13T13:10:22;8.70;99.90
15707;DHT22;7953;54.302;10.128;2022-11-13T13:12:57;8.70;99.90
15707;DHT22;7953;54.302;10.128;2022-11-13T13:15:32;8.70;99.90
15707;DHT22;7953;54.302;10.128;2022-11-13T13:18:02;8.70;99.90
15707;DHT22;7953;54.302;10.128;2022-11-13T13:20:33;8.70;99.90
15707;DHT22;7953;54.302;10.128;2022-11-13T13:23:02;8.60;99.90
15707;DHT22;7953;54.302;10.128;2022-11-13T13:25:30;8.60;99.90
15707;DHT22;7953;54.302;10.128;2022-11-13T13:27:59;8.60;99.90
15707;DHT22;7953;54.302;10.128;2022-11-13T13:30:27;8.60;99.90
15707;DHT22;7953;54.302;10.128;2022-11-13T13:33:06;8.70;99.90
15707;DHT22;7953;54.302;10.128;2022-11-13T13:35:40;8.70;99.90
15707;DHT22;7953;54.302;10.128;2022-11-13T13:38:15;8.70;99.90
15707;DHT22;7953;54.302;10.128;2022-11-13T13:40:55;8.70;99.90
15707;DHT22;7953;54.302;10.128;2022-11-13T13:43:36;8.80;99.90
15707;DHT22;7953;54.302;10.128;2022-11-13T13:46:12;8.80;99.90
15707;DHT22;7953;54.302;10.128;2022-11-13T13:48:41;8.80;99.90
15707;DHT22;7953;54.302;10.128;2022-11-13T13:51:16;8.80;99.90
15707;DHT22;7953;54.302;10.128;2022-11-13T13:53:45;8.80;99.90
15707;DHT22;7953;54.302;10.128;2022-11-13T13:56:13;8.80;99.90
15707;DHT22;7953;54.302;10.128;2022-11-13T13:58:40;8.80;99.90
15707;DHT22;7953;54.302;10.128;2022-11-13T14:01:13;8.80;99.90
15707;DHT22;7953;54.302;10.128;2022-11-13T14:03:40;8.80;99.90
15707;DHT22;7953;54.302;10.128;2022-11-13T14:06:08;8.80;99.90
15707;DHT22;7953;54.302;10.128;2022-11-13T14:08:36;8.90;99.90
15707;DHT22;7953;54.302;10.128;2022-11-13T14:11:15;8.90;99.90
15707;DHT22;7953;54.302;10.128;2022-11-13T14:13:42;8.90;99.90
15707;DHT22;7953;54.302;10.128;2022-11-13T14:16:09;8.90;99.90
15707;DHT22;7953;54.302;10.128;2022-11-13T14:18:36;8.90;99.90
15707;DHT22;7953;54.302;10.128;2022-11-13T14:21:07;8.90;99.90
15707;DHT22;7953;54.302;10.128;2022-11-13T14:23:39;8.90;99.90
15707;DHT22;7953;54.302;10.128;2022-11-13T14:26:10;8.90;99.90
15707;DHT22;7953;54.302;10.128;2022-11-13T14:28:44;8.90;99.90
15707;DHT22;7953;54.302;10.128;2022-11-13T14:31:13;8.90;99.90
15707;DHT22;7953;54.302;10.128;2022-11-13T14:33:42;9.00;99.90
15707;DHT22;7953;54.302;10.128;2022-11-13T14:36:10;9.00;99.90
15707;DHT22;7953;54.302;10.128;2022-11-13T14:38:42;9.00;99.90
15707;DHT22;7953;54.302;10.128;2022-11-13T14:41:20;9.10;99.90
15707;DHT22;7953;54.302;10.128;2022-11-13T14:43:50;9.00;99.90
15707;DHT22;7953;54.302;10.128;2022-11-13T14:46:26;9.10;99.90
15707;DHT22;7953;54.302;10.128;2022-11-13T14:48:54;9.00;99.90
15707;DHT22;7953;54.302;10.128;2022-11-13T14:51:23;9.00;99.90
15707;DHT22;7953;54.302;10.128;2022-11-13T14:53:56;8.90;99.90
15707;DHT22;7953;54.302;10.128;2022-11-13T14:56:33;8.90;99.90
15707;DHT22;7953;54.302;10.128;2022-11-13T14:59:08;9.00;99.90
15707;DHT22;7953;54.302;10.128;2022-11-13T15:01:35;9.00;99.90
15707;DHT22;7953;54.302;10.128;2022-11-13T15:04:03;9.10;99.90
15707;DHT22;7953;54.302;10.128;2022-11-13T15:06:35;9.10;99.90
15707;DHT22;7953;54.302;10.128;2022-11-13T15:09:04;9.10;99.90
15707;DHT22;7953;54.302;10.128;2022-11-13T15:11:33;9.10;99.90
15707;DHT22;7953;54.302;10.128;2022-11-13T15:14:07;9.20;99.90
15707;DHT22;7953;54.302;10.128;2022-11-13T15:16:34;9.20;99.90
15707;DHT22;7953;54.302;10.128;2022-11-13T15:19:03;9.10;99.90
15707;DHT22;7953;54.302;10.128;2022-11-13T15:21:31;9.10;99.90
15707;DHT22;7953;54.302;10.128;2022-11-13T15:23:58;9.10;99.90
15707;DHT22;7953;54.302;10.128;2022-11-13T15:26:26;9.10;99.90
15707;DHT22;7953;54.302;10.128;2022-11-13T15:28:54;9.20;99.90
15707;DHT22;7953;54.302;10.128;2022-11-13T15:31:29;9.10;99.90
15707;DHT22;7953;54.302;10.128;2022-11-13T15:33:56;9.20;99.90
15707;DHT22;7953;54.302;10.128;2022-11-13T15:36:23;9.10;99.90
15707;DHT22;7953;54.302;10.128;2022-11-13T15:38:50;9.10;99.90
15707;DHT22;7953;54.302;10.128;2022-11-13T15:41:20;9.10;99.90
15707;DHT22;7953;54.302;10.128;2022-11-13T15:43:49;9.20;99.90
15707;DHT22;7953;54.302;10.128;2022-11-13T15:46:19;9.10;99.90
15707;DHT22;7953;54.302;10.128;2022-11-13T15:48:47;9.10;99.90
15707;DHT22;7953;54.302;10.128;2022-11-13T15:51:18;9.10;99.90
15707;DHT22;7953;54.302;10.128;2022-11-13T15:53:49;9.10;99.90
15707;DHT22;7953;54.302;10.128;2022-11-13T15:56:17;9.10;99.90
15707;DHT22;7953;54.302;10.128;2022-11-13T15:58:45;9.20;99.90
15707;DHT22;7953;54.302;10.128;2022-11-13T16:01:13;9.20;99.90
15707;DHT22;7953;54.302;10.128;2022-11-13T16:03:42;9.20;99.90